ZPPP/KMG METAR and TAF weather

Enter ICAO airport designator
Station Type Date Time Source
ZPPP METAR 2019/04/23 00:00 UTC NOAA

ZPPP 230000Z 23005MPS CAVOK 16/05 Q1021 BECMG TL0130 23011MPS


Station Type Date Time Source
ZPPP Decoded METAR 2019/04/23 00:00 UTC NOAA

Kunming, China (ZPPP) 25-01N 102-41E 1892M
Apr 22, 2019 - 08:00 PM EDT / 2019.04.23 0000 UTC
Wind: from the SW (230 degrees) at 11 MPH (10 KT):0
Visibility: greater than 7 mile(s):0
Temperature: 60 F (16 C)
Dew Point: 41 F (5 C)
Relative Humidity: 47%
Pressure (altimeter): 30.15 in. Hg (1021 hPa)
ob: ZPPP 230000Z 23005MPS CAVOK 16/05 Q1021 BECMG TL0130 23011MPS
cycle: 0

Station Type Date Time Source
ZPPP TAF 2019/04/22 18:03 UTC NOAA

TAF ZPPP 221304Z 2218/2318 23006MPS CAVOK TX28/2308Z TN13/2223Z

Example: see airport list